Time;durP1;ratioP1;P1;durP2;ratioP2;P2;SDS_P1;SDS_P2;PMS_P1;PMS_P2;Temp;Humidity;BMP_temperature;BMP_pressure;BME280_temperature;BME280_humidity;BME280_pressure;Samples;Min_cycle;Max_cycle;Signal;HPM_P1;HPM_P2
2022/03/16 00:00:59;;;;;;;10.80;9.17;;;;;;;;;;5020893;28;20237;-90
2022/03/16 00:03:25;;;;;;;10.37;8.83;;;;;;;;;;5002123;28;20470;-87
2022/03/16 00:05:51;;;;;;;10.15;7.70;;;;;;;;;;5002659;28;20593;-91
2022/03/16 00:08:17;;;;;;;11.32;10.13;;;;;;;;;;5003599;28;20214;-90
2022/03/16 00:10:43;;;;;;;9.47;8.03;;;;;;;;;;5020164;28;20191;-92
2022/03/16 00:13:10;;;;;;;8.47;7.57;;;;;;;;;;5017251;28;20523;-93
2022/03/16 00:15:36;;;;;;;10.25;7.82;;;;;;;;;;5008192;28;20451;-92
2022/03/16 00:18:02;;;;;;;8.40;7.50;;;;;;;;;;4996571;28;20195;-92
2022/03/16 00:20:28;;;;;;;10.70;8.35;;;;;;;;;;5005214;28;20203;-92
2022/03/16 00:22:54;;;;;;;11.73;8.20;;;;;;;;;;5003587;28;20210;-87
2022/03/16 00:25:20;;;;;;;11.60;7.70;;;;;;;;;;5017379;28;20729;-90
2022/03/16 00:27:46;;;;;;;9.30;8.32;;;;;;;;;;5019510;28;20556;-92
2022/03/16 00:30:13;;;;;;;11.75;9.05;;;;;;;;;;5015198;28;20183;-92
2022/03/16 00:32:39;;;;;;;10.70;8.50;;;;;;;;;;5019953;28;20182;-91
2022/03/16 00:35:05;;;;;;;11.63;8.52;;;;;;;;;;5017991;28;20183;-90
2022/03/16 00:37:32;;;;;;;10.25;9.25;;;;;;;;;;5004108;28;20175;-90
2022/03/16 00:39:58;;;;;;;9.52;8.52;;;;;;;;;;5005019;28;20583;-92
2022/03/16 00:42:24;;;;;;;8.63;7.82;;;;;;;;;;5003511;28;20195;-92
2022/03/16 00:44:50;;;;;;;9.50;8.60;;;;;;;;;;4994877;28;20708;-91
2022/03/16 00:47:16;;;;;;;10.15;8.57;;;;;;;;;;4991862;28;20215;-91
2022/03/16 00:49:42;;;;;;;9.90;8.88;;;;;;;;;;4994802;28;20180;-91
2022/03/16 00:52:08;;;;;;;11.35;8.98;;;;;;;;;;5005623;28;20185;-89
2022/03/16 00:54:35;;;;;;;11.90;10.30;;;;;;;;;;5004506;28;20286;-92
2022/03/16 00:57:02;;;;;;;14.45;8.65;;;;;;;;;;5012787;28;20434;-93
2022/03/16 00:59:28;;;;;;;10.68;9.57;;;;;;;;;;5004440;28;20183;-93
2022/03/16 01:01:54;;;;;;;10.77;7.85;;;;;;;;;;5003200;28;20223;-94
2022/03/16 01:04:20;;;;;;;9.90;8.90;;;;;;;;;;5020667;28;20262;-92
2022/03/16 01:06:46;;;;;;;10.55;9.30;;;;;;;;;;5002812;28;20447;-93
2022/03/16 01:09:12;;;;;;;10.50;9.43;;;;;;;;;;5014277;28;20198;-92
2022/03/16 01:11:38;;;;;;;9.10;8.20;;;;;;;;;;5019823;28;20179;-93
2022/03/16 01:14:04;;;;;;;14.03;9.50;;;;;;;;;;5017502;28;20243;-93
2022/03/16 01:16:32;;;;;;;12.18;9.88;;;;;;;;;;5003995;28;20418;-92
2022/03/16 01:18:58;;;;;;;13.65;10.00;;;;;;;;;;5020253;28;20193;-93
2022/03/16 01:21:27;;;;;;;11.67;9.23;;;;;;;;;;5014333;28;20234;-93
2022/03/16 01:23:53;;;;;;;10.38;9.38;;;;;;;;;;5015195;28;20451;-93
2022/03/16 01:26:19;;;;;;;14.23;8.70;;;;;;;;;;4990734;28;20185;-93
2022/03/16 01:28:45;;;;;;;11.13;8.83;;;;;;;;;;5018972;28;20465;-93
2022/03/16 01:31:11;;;;;;;10.03;9.03;;;;;;;;;;4991257;28;20697;-94
2022/03/16 01:33:37;;;;;;;12.40;9.40;;;;;;;;;;5000703;28;20434;-93
2022/03/16 01:36:03;;;;;;;10.52;8.80;;;;;;;;;;5001478;28;21011;-93
2022/03/16 01:38:29;;;;;;;10.38;9.30;;;;;;;;;;5013786;28;20210;-91
2022/03/16 01:40:56;;;;;;;10.20;9.17;;;;;;;;;;5004532;28;20190;-94
2022/03/16 01:43:22;;;;;;;11.95;9.00;;;;;;;;;;5024216;28;20417;-94
2022/03/16 01:45:49;;;;;;;12.40;8.90;;;;;;;;;;5018411;28;20193;-94
2022/03/16 01:48:15;;;;;;;14.95;9.60;;;;;;;;;;5014037;28;20215;-94
2022/03/16 01:50:41;;;;;;;14.02;8.70;;;;;;;;;;5021881;28;20182;-94
2022/03/16 01:53:07;;;;;;;12.25;9.73;;;;;;;;;;5019620;28;20186;-94
2022/03/16 01:55:33;;;;;;;15.70;10.20;;;;;;;;;;5008396;28;20373;-93
2022/03/16 01:58:01;;;;;;;11.88;9.63;;;;;;;;;;5020858;28;20175;-92
2022/03/16 02:00:26;;;;;;;10.70;9.25;;;;;;;;;;5015954;28;20207;-94
2022/03/16 02:02:52;;;;;;;12.30;9.07;;;;;;;;;;5011282;28;20191;-93
2022/03/16 02:05:18;;;;;;;14.57;9.83;;;;;;;;;;4994100;28;20430;-93
2022/03/16 02:07:44;;;;;;;11.98;9.07;;;;;;;;;;5005918;28;20465;-93
2022/03/16 02:10:11;;;;;;;11.50;9.50;;;;;;;;;;5020172;28;20183;-93
2022/03/16 02:12:46;;;;;;;12.07;9.15;;;;;;;;;;5022103;28;20179;-92
2022/03/16 02:15:12;;;;;;;12.48;9.13;;;;;;;;;;5022608;28;20187;-93
2022/03/16 02:17:39;;;;;;;11.35;9.85;;;;;;;;;;5018129;28;20246;-92
2022/03/16 02:20:06;;;;;;;11.10;8.68;;;;;;;;;;5007208;28;20183;-92
2022/03/16 02:22:33;;;;;;;11.30;8.40;;;;;;;;;;5021916;28;20175;-91
2022/03/16 02:24:59;;;;;;;11.90;10.65;;;;;;;;;;5022892;28;20206;-93
2022/03/16 02:27:25;;;;;;;10.63;8.25;;;;;;;;;;5012373;28;20194;-89
2022/03/16 02:29:51;;;;;;;9.30;8.20;;;;;;;;;;5022676;28;20237;-93
2022/03/16 02:32:17;;;;;;;9.13;8.23;;;;;;;;;;5018536;28;20446;-92
2022/03/16 02:34:43;;;;;;;8.48;7.68;;;;;;;;;;5022553;28;20182;-92
2022/03/16 02:37:09;;;;;;;8.90;8.00;;;;;;;;;;5022338;28;20183;-94
2022/03/16 02:39:35;;;;;;;9.68;8.07;;;;;;;;;;5015341;28;20234;-94
2022/03/16 02:42:02;;;;;;;9.32;7.70;;;;;;;;;;5006715;28;20274;-93
2022/03/16 02:44:28;;;;;;;10.02;8.20;;;;;;;;;;5018304;28;20183;-92
2022/03/16 02:46:54;;;;;;;9.57;7.88;;;;;;;;;;5005387;28;20179;-92
2022/03/16 02:49:20;;;;;;;10.13;9.13;;;;;;;;;;5020115;28;20180;-93
2022/03/16 02:51:46;;;;;;;10.80;8.47;;;;;;;;;;4995589;28;20435;-93
2022/03/16 02:54:12;;;;;;;13.07;9.25;;;;;;;;;;4999925;28;20477;-93
2022/03/16 02:56:38;;;;;;;9.65;7.75;;;;;;;;;;5004564;28;20187;-93
2022/03/16 02:59:04;;;;;;;10.73;9.47;;;;;;;;;;5004874;28;20194;-94
2022/03/16 03:01:30;;;;;;;11.30;8.82;;;;;;;;;;5021877;28;20426;-92
2022/03/16 03:03:57;;;;;;;13.05;9.10;;;;;;;;;;5023286;28;20179;-96
2022/03/16 03:06:22;;;;;;;12.00;8.77;;;;;;;;;;4998187;28;20187;-95
2022/03/16 03:08:48;;;;;;;11.60;9.70;;;;;;;;;;4996871;28;20230;-95
2022/03/16 03:11:15;;;;;;;14.60;9.07;;;;;;;;;;5018510;28;20438;-95
2022/03/16 03:13:41;;;;;;;11.27;8.45;;;;;;;;;;5019976;28;20179;-95
2022/03/16 03:16:07;;;;;;;12.10;9.52;;;;;;;;;;5008935;28;20180;-95
2022/03/16 03:18:37;;;;;;;9.85;8.23;;;;;;;;;;5005242;28;20213;-95
2022/03/16 03:21:03;;;;;;;10.82;8.15;;;;;;;;;;5016605;28;20187;-94
2022/03/16 03:23:29;;;;;;;11.57;8.60;;;;;;;;;;5005213;28;20279;-91
2022/03/16 03:25:55;;;;;;;15.23;8.98;;;;;;;;;;4989550;28;20783;-95
2022/03/16 03:28:21;;;;;;;10.20;9.05;;;;;;;;;;4992369;28;20706;-93
2022/03/16 03:30:48;;;;;;;9.40;8.50;;;;;;;;;;5004055;28;20195;-95
2022/03/16 03:33:14;;;;;;;10.88;8.77;;;;;;;;;;4997823;28;20192;-93
2022/03/16 03:35:40;;;;;;;10.00;8.20;;;;;;;;;;4994439;28;20190;-93
2022/03/16 03:38:06;;;;;;;12.83;9.43;;;;;;;;;;5015725;28;20206;-92
2022/03/16 03:40:32;;;;;;;12.50;8.82;;;;;;;;;;5002335;28;20458;-93
2022/03/16 03:42:58;;;;;;;12.05;9.07;;;;;;;;;;5018525;28;20187;-95
2022/03/16 03:45:24;;;;;;;15.75;9.75;;;;;;;;;;5001773;28;20190;-92
2022/03/16 03:47:49;;;;;;;12.30;9.50;;;;;;;;;;5008800;28;20305;-95
2022/03/16 03:50:16;;;;;;;12.20;9.57;;;;;;;;;;4996452;28;20192;-94
2022/03/16 03:52:42;;;;;;;11.18;9.07;;;;;;;;;;5004935;28;20238;-93
2022/03/16 03:55:08;;;;;;;9.73;8.68;;;;;;;;;;5018366;28;20168;-91
2022/03/16 03:57:34;;;;;;;13.15;9.15;;;;;;;;;;5018813;28;20191;-93
2022/03/16 04:00:00;;;;;;;13.20;9.70;;;;;;;;;;5013954;28;20197;-94
2022/03/16 04:02:26;;;;;;;12.00;8.83;;;;;;;;;;5020450;28;20441;-95
2022/03/16 04:04:52;;;;;;;11.48;8.80;;;;;;;;;;5017779;28;20461;-93
2022/03/16 04:07:18;;;;;;;10.90;8.20;;;;;;;;;;4992713;28;20195;-94
2022/03/16 04:09:46;;;;;;;11.05;8.93;;;;;;;;;;5004724;28;20187;-92
2022/03/16 04:12:12;;;;;;;11.80;9.45;;;;;;;;;;5017086;28;20191;-94
2022/03/16 04:14:38;;;;;;;11.48;9.15;;;;;;;;;;5017731;28;20179;-93
2022/03/16 04:17:04;;;;;;;10.65;9.25;;;;;;;;;;5018756;28;20527;-94
2022/03/16 04:19:30;;;;;;;10.77;9.68;;;;;;;;;;5003788;28;20179;-93
2022/03/16 04:21:56;;;;;;;12.18;9.70;;;;;;;;;;5006060;28;20274;-87
2022/03/16 04:24:22;;;;;;;10.80;9.40;;;;;;;;;;4997457;28;20246;-91
2022/03/16 04:26:48;;;;;;;10.20;9.20;;;;;;;;;;4994788;28;20711;-94
2022/03/16 04:29:14;;;;;;;9.27;7.88;;;;;;;;;;5018196;28;20497;-93
2022/03/16 04:31:40;;;;;;;11.80;9.60;;;;;;;;;;5020075;28;20213;-95
2022/03/16 04:34:06;;;;;;;12.50;9.37;;;;;;;;;;5019857;28;20430;-93
2022/03/16 04:36:32;;;;;;;11.02;8.93;;;;;;;;;;5015614;28;20453;-93
2022/03/16 04:38:58;;;;;;;12.63;7.95;;;;;;;;;;5014702;28;20219;-92
2022/03/16 04:41:24;;;;;;;10.95;9.07;;;;;;;;;;5024359;28;20179;-93
2022/03/16 04:43:50;;;;;;;9.15;7.80;;;;;;;;;;5019558;28;20201;-93
2022/03/16 04:46:16;;;;;;;10.60;8.50;;;;;;;;;;5017593;28;20183;-93
2022/03/16 04:48:42;;;;;;;9.80;8.80;;;;;;;;;;5006929;28;20199;-92
2022/03/16 04:51:08;;;;;;;10.35;9.32;;;;;;;;;;4997158;28;20214;-92
2022/03/16 04:53:34;;;;;;;11.93;10.43;;;;;;;;;;5017242;28;20194;-92
2022/03/16 04:56:00;;;;;;;11.85;8.65;;;;;;;;;;4994673;28;20179;-93
2022/03/16 04:58:26;;;;;;;10.50;8.63;;;;;;;;;;5019976;28;20179;-91
2022/03/16 05:00:52;;;;;;;11.23;9.13;;;;;;;;;;5003307;28;20687;-93
2022/03/16 05:03:18;;;;;;;9.45;8.45;;;;;;;;;;5012944;28;20188;-93
2022/03/16 05:05:46;;;;;;;13.05;9.57;;;;;;;;;;4991814;28;20194;-93
2022/03/16 05:08:12;;;;;;;13.50;8.98;;;;;;;;;;4989852;28;20213;-93
2022/03/16 05:10:38;;;;;;;11.95;8.52;;;;;;;;;;5003372;28;20172;-93
2022/03/16 05:13:04;;;;;;;12.10;9.48;;;;;;;;;;5016472;28;20183;-93
2022/03/16 05:15:30;;;;;;;10.88;9.68;;;;;;;;;;4999744;28;20409;-92
2022/03/16 05:17:56;;;;;;;10.82;8.30;;;;;;;;;;5004043;28;20215;-93
2022/03/16 05:20:22;;;;;;;10.93;9.30;;;;;;;;;;5015259;28;20194;-93
2022/03/16 05:22:50;;;;;;;10.93;7.78;;;;;;;;;;5018723;28;20187;-92
2022/03/16 05:25:17;;;;;;;11.15;8.85;;;;;;;;;;5017183;28;20195;-87
2022/03/16 05:27:43;;;;;;;11.68;8.30;;;;;;;;;;5018171;28;20230;-93
2022/03/16 05:30:10;;;;;;;10.73;8.82;;;;;;;;;;5003328;28;20329;-93
2022/03/16 05:32:36;;;;;;;11.27;7.72;;;;;;;;;;5014770;28;20189;-92
2022/03/16 05:35:03;;;;;;;9.50;7.68;;;;;;;;;;5002792;28;20171;-93
2022/03/16 05:37:29;;;;;;;11.85;7.80;;;;;;;;;;5004532;28;20179;-92
2022/03/16 05:39:55;;;;;;;12.17;8.83;;;;;;;;;;5019125;28;20779;-88
2022/03/16 05:42:21;;;;;;;11.77;8.70;;;;;;;;;;5012225;28;20450;-92
2022/03/16 05:44:47;;;;;;;9.40;8.32;;;;;;;;;;5011822;28;20183;-92
2022/03/16 05:47:14;;;;;;;8.15;6.95;;;;;;;;;;4990121;28;20189;-93
2022/03/16 05:49:40;;;;;;;15.50;8.60;;;;;;;;;;5019140;28;20337;-93
2022/03/16 05:52:06;;;;;;;12.60;9.25;;;;;;;;;;5004986;28;20657;-93
2022/03/16 05:54:32;;;;;;;11.18;9.45;;;;;;;;;;5014347;28;20527;-93
2022/03/16 05:56:58;;;;;;;10.65;8.82;;;;;;;;;;5009114;28;20259;-93
2022/03/16 05:59:24;;;;;;;8.95;8.05;;;;;;;;;;5018025;28;20183;-92
2022/03/16 06:01:51;;;;;;;18.00;10.48;;;;;;;;;;5006292;28;20209;-93
2022/03/16 06:04:17;;;;;;;10.30;8.35;;;;;;;;;;5004710;28;20175;-93
2022/03/16 06:06:43;;;;;;;11.80;9.23;;;;;;;;;;5015152;28;20266;-92
2022/03/16 06:09:09;;;;;;;11.63;9.35;;;;;;;;;;5002449;28;20210;-94
2022/03/16 06:11:36;;;;;;;14.02;9.77;;;;;;;;;;5014708;28;20205;-92
2022/03/16 06:14:02;;;;;;;11.05;8.32;;;;;;;;;;5016275;28;20183;-91
2022/03/16 06:16:28;;;;;;;12.13;9.20;;;;;;;;;;5003368;28;20231;-91
2022/03/16 06:18:54;;;;;;;10.47;8.47;;;;;;;;;;5020357;28;20180;-92
2022/03/16 06:21:20;;;;;;;11.30;9.60;;;;;;;;;;5015937;28;20462;-93
2022/03/16 06:23:46;;;;;;;11.32;9.25;;;;;;;;;;5002779;28;20438;-93
2022/03/16 06:26:12;;;;;;;13.18;10.32;;;;;;;;;;5000794;28;20175;-93
2022/03/16 06:28:38;;;;;;;9.98;8.88;;;;;;;;;;4993653;28;20231;-93
2022/03/16 06:31:04;;;;;;;11.48;8.80;;;;;;;;;;5023080;28;20183;-92
2022/03/16 06:33:30;;;;;;;12.52;9.25;;;;;;;;;;5023263;28;20179;-93
2022/03/16 06:35:56;;;;;;;9.88;8.85;;;;;;;;;;5013717;28;20270;-92
2022/03/16 06:38:22;;;;;;;10.23;9.15;;;;;;;;;;5018115;28;20206;-93
2022/03/16 06:40:48;;;;;;;10.00;7.95;;;;;;;;;;5003811;28;20973;-93
2022/03/16 06:43:14;;;;;;;13.43;9.45;;;;;;;;;;5023142;28;20175;-93
2022/03/16 06:45:40;;;;;;;12.48;10.18;;;;;;;;;;4995808;28;20219;-93
2022/03/16 06:48:06;;;;;;;12.20;9.25;;;;;;;;;;5005207;28;20207;-93
2022/03/16 06:50:32;;;;;;;11.90;9.33;;;;;;;;;;5005219;28;20728;-93
2022/03/16 06:52:59;;;;;;;11.40;8.68;;;;;;;;;;5012265;28;20434;-91
2022/03/16 06:55:26;;;;;;;12.30;9.38;;;;;;;;;;5022132;28;20178;-90
2022/03/16 06:57:52;;;;;;;11.38;9.10;;;;;;;;;;5000908;28;20179;-92
2022/03/16 07:00:19;;;;;;;11.48;8.65;;;;;;;;;;4993093;28;20348;-90
2022/03/16 07:03:07;;;;;;;12.70;9.48;;;;;;;;;;4997697;28;20198;-91
2022/03/16 07:05:35;;;;;;;10.20;8.70;;;;;;;;;;5004477;28;20242;-91
2022/03/16 07:08:02;;;;;;;11.45;9.90;;;;;;;;;;5002268;28;20218;-92
2022/03/16 07:10:29;;;;;;;13.90;9.95;;;;;;;;;;5021797;28;20187;-91
2022/03/16 07:12:55;;;;;;;13.52;10.00;;;;;;;;;;5005664;28;20239;-92
2022/03/16 07:15:21;;;;;;;11.57;8.13;;;;;;;;;;5005203;28;20194;-91
2022/03/16 07:17:47;;;;;;;12.80;9.95;;;;;;;;;;5006098;28;20275;-92
2022/03/16 07:20:13;;;;;;;10.82;9.40;;;;;;;;;;5014985;28;20190;-92
2022/03/16 07:22:39;;;;;;;11.88;9.43;;;;;;;;;;5006065;28;20630;-92
2022/03/16 07:25:09;;;;;;;13.35;9.80;;;;;;;;;;5020076;28;20179;-91
2022/03/16 07:27:35;;;;;;;11.27;9.27;;;;;;;;;;5008240;28;20203;-92
2022/03/16 07:30:01;;;;;;;14.75;10.23;;;;;;;;;;5005600;28;20195;-92
2022/03/16 07:32:27;;;;;;;11.15;9.25;;;;;;;;;;5011193;28;20660;-90
2022/03/16 07:34:53;;;;;;;13.27;10.05;;;;;;;;;;5004624;28;20191;-91
2022/03/16 07:37:19;;;;;;;14.45;11.00;;;;;;;;;;5022533;28;20559;-92
2022/03/16 07:39:45;;;;;;;16.73;10.73;;;;;;;;;;5015669;28;20332;-91
2022/03/16 07:42:11;;;;;;;12.88;9.77;;;;;;;;;;5011176;28;20569;-91
2022/03/16 07:44:37;;;;;;;14.73;10.70;;;;;;;;;;4994747;28;20187;-92
2022/03/16 07:47:05;;;;;;;14.82;11.13;;;;;;;;;;5003821;28;20489;-92
2022/03/16 07:49:31;;;;;;;14.40;9.90;;;;;;;;;;5020646;28;20628;-89
2022/03/16 07:51:57;;;;;;;14.10;10.73;;;;;;;;;;5021237;28;20222;-91
2022/03/16 07:54:23;;;;;;;15.00;11.35;;;;;;;;;;5017025;28;20614;-92
2022/03/16 07:56:49;;;;;;;13.65;10.82;;;;;;;;;;5010618;28;20202;-92
2022/03/16 07:59:15;;;;;;;15.35;9.65;;;;;;;;;;5004898;28;20211;-93
2022/03/16 08:01:43;;;;;;;10.73;9.60;;;;;;;;;;5019697;28;20210;-93
2022/03/16 08:04:09;;;;;;;12.30;10.15;;;;;;;;;;4999188;28;20210;-92
2022/03/16 08:06:35;;;;;;;13.80;10.67;;;;;;;;;;5011269;28;20188;-92
2022/03/16 08:09:01;;;;;;;16.20;11.10;;;;;;;;;;4993038;28;20467;-91
2022/03/16 08:11:27;;;;;;;16.02;11.18;;;;;;;;;;4993005;28;20190;-90
2022/03/16 08:13:53;;;;;;;12.80;10.30;;;;;;;;;;5001004;28;20195;-92
2022/03/16 08:16:19;;;;;;;12.75;9.68;;;;;;;;;;5020560;28;20457;-91
2022/03/16 08:18:45;;;;;;;17.80;11.55;;;;;;;;;;5003829;28;20187;-93
2022/03/16 08:21:11;;;;;;;13.87;11.10;;;;;;;;;;5003130;28;20210;-92
2022/03/16 08:23:38;;;;;;;14.73;10.93;;;;;;;;;;5017582;28;20505;-90
2022/03/16 08:26:04;;;;;;;18.17;12.50;;;;;;;;;;5018289;28;20186;-86
2022/03/16 08:28:30;;;;;;;14.25;11.13;;;;;;;;;;5004857;28;20211;-90
2022/03/16 08:30:58;;;;;;;14.77;11.10;;;;;;;;;;5019724;28;20183;-90
2022/03/16 08:33:24;;;;;;;16.65;11.38;;;;;;;;;;5000100;28;20270;-90
2022/03/16 08:35:50;;;;;;;16.10;11.98;;;;;;;;;;5002557;28;20198;-89
2022/03/16 08:38:16;;;;;;;18.27;12.48;;;;;;;;;;5001812;28;20180;-89
2022/03/16 08:40:42;;;;;;;17.00;13.07;;;;;;;;;;5001657;28;20238;-88
2022/03/16 08:43:09;;;;;;;16.60;13.27;;;;;;;;;;5014870;28;20183;-89
2022/03/16 08:45:35;;;;;;;15.15;11.68;;;;;;;;;;4999399;28;20247;-87
2022/03/16 08:48:01;;;;;;;24.25;13.18;;;;;;;;;;4995650;28;20803;-88
2022/03/16 08:50:30;;;;;;;15.02;13.43;;;;;;;;;;4999629;28;20195;-87
2022/03/16 08:52:57;;;;;;;18.33;14.73;;;;;;;;;;5015494;28;20183;-86
2022/03/16 08:55:23;;;;;;;18.00;14.20;;;;;;;;;;5001101;28;20179;-86
2022/03/16 08:57:49;;;;;;;21.15;12.32;;;;;;;;;;4998419;28;20197;-85
2022/03/16 09:00:15;;;;;;;13.98;11.48;;;;;;;;;;4999238;28;20214;-86
2022/03/16 09:02:44;;;;;;;16.65;13.38;;;;;;;;;;5001196;28;21259;-84
2022/03/16 09:05:12;;;;;;;15.40;11.82;;;;;;;;;;5016240;28;20199;-86
2022/03/16 09:07:38;;;;;;;18.30;13.70;;;;;;;;;;4999915;28;20437;-86
2022/03/16 09:10:06;;;;;;;17.23;13.25;;;;;;;;;;5018628;28;20179;-86
2022/03/16 09:12:32;;;;;;;17.00;12.20;;;;;;;;;;5001642;28;20167;-85
2022/03/16 09:14:58;;;;;;;15.15;12.85;;;;;;;;;;5000142;28;20207;-85
2022/03/16 09:17:24;;;;;;;17.60;12.17;;;;;;;;;;5001302;28;20189;-88
2022/03/16 09:19:50;;;;;;;18.13;12.70;;;;;;;;;;5000799;28;20450;-84
2022/03/16 09:22:16;;;;;;;17.80;13.02;;;;;;;;;;5019009;28;20617;-89
2022/03/16 09:24:43;;;;;;;17.05;14.23;;;;;;;;;;5017876;28;20199;-89
2022/03/16 09:27:09;;;;;;;21.58;14.85;;;;;;;;;;5000981;28;20187;-89
2022/03/16 09:29:35;;;;;;;17.05;13.23;;;;;;;;;;5001046;28;20179;-88
2022/03/16 09:32:01;;;;;;;19.30;14.98;;;;;;;;;;4996362;28;20187;-88
2022/03/16 09:34:27;;;;;;;18.17;14.63;;;;;;;;;;5018764;28;20175;-88
2022/03/16 09:36:53;;;;;;;23.90;16.67;;;;;;;;;;5017781;28;20179;-90
2022/03/16 09:39:19;;;;;;;23.13;15.93;;;;;;;;;;5000511;28;20219;-89
2022/03/16 09:41:45;;;;;;;20.08;16.75;;;;;;;;;;5000894;28;20190;-90
2022/03/16 09:44:11;;;;;;;21.27;16.60;;;;;;;;;;5001849;28;20210;-88
2022/03/16 09:46:39;;;;;;;18.70;13.90;;;;;;;;;;5005758;28;20423;-89
2022/03/16 09:49:08;;;;;;;23.65;14.75;;;;;;;;;;5014909;28;20239;-90
2022/03/16 09:51:35;;;;;;;18.50;14.77;;;;;;;;;;5008969;28;20187;-90
2022/03/16 09:54:02;;;;;;;16.20;13.60;;;;;;;;;;4993960;28;20179;-90
2022/03/16 09:56:30;;;;;;;19.42;16.13;;;;;;;;;;5003992;28;20179;-89
2022/03/16 09:58:56;;;;;;;17.40;14.25;;;;;;;;;;4990105;28;20179;-89
2022/03/16 10:01:22;;;;;;;21.30;14.10;;;;;;;;;;5003417;28;20171;-87
2022/03/16 10:03:49;;;;;;;19.48;14.80;;;;;;;;;;5002611;28;20240;-87
2022/03/16 10:06:16;;;;;;;21.85;14.10;;;;;;;;;;5020926;28;20187;-89
2022/03/16 10:13:13;;;;;;;18.75;14.38;;;;;;;;;;5018694;28;20572;-89
2022/03/16 10:14:24;;;;;;;22.15;13.80;;;;;;;;;;5003224;28;20191;-89
2022/03/16 10:19:50;;;;;;;20.92;14.48;;;;;;;;;;5018792;28;20202;-88
2022/03/16 10:22:42;;;;;;;23.42;14.85;;;;;;;;;;4989164;28;20701;-88
2022/03/16 10:25:08;;;;;;;17.50;13.10;;;;;;;;;;5001831;28;20195;-88
2022/03/16 10:27:38;;;;;;;15.77;14.05;;;;;;;;;;5017830;28;20225;-86
2022/03/16 10:30:06;;;;;;;20.77;14.70;;;;;;;;;;5010236;28;20191;-88
2022/03/16 10:32:32;;;;;;;15.68;12.50;;;;;;;;;;5001782;28;20190;-86
2022/03/16 10:35:05;;;;;;;15.40;13.50;;;;;;;;;;4987990;28;20325;-87
2022/03/16 10:37:33;;;;;;;17.27;13.82;;;;;;;;;;5006776;28;20182;-88
2022/03/16 10:39:59;;;;;;;17.00;13.95;;;;;;;;;;4988242;28;20223;-89
2022/03/16 10:48:19;;;;;;;16.75;14.43;;;;;;;;;;5002282;28;20245;-91
2022/03/16 10:50:46;;;;;;;17.65;13.80;;;;;;;;;;4999429;28;20192;-91
2022/03/16 10:53:14;;;;;;;17.38;13.57;;;;;;;;;;5012501;28;20191;-87
2022/03/16 10:55:41;;;;;;;16.30;12.85;;;;;;;;;;5019287;28;20239;-90
2022/03/16 10:58:08;;;;;;;17.48;13.40;;;;;;;;;;5022594;28;20189;-91
2022/03/16 11:00:37;;;;;;;21.15;13.65;;;;;;;;;;5003302;28;20187;-90
2022/03/16 11:03:07;;;;;;;17.55;12.45;;;;;;;;;;5001390;28;20187;-89
2022/03/16 11:05:37;;;;;;;18.20;12.85;;;;;;;;;;5002010;28;20237;-90
2022/03/16 11:08:07;;;;;;;18.98;12.88;;;;;;;;;;5003049;28;20211;-89
2022/03/16 11:10:40;;;;;;;15.85;14.15;;;;;;;;;;5003398;28;20175;-90
2022/03/16 11:15:52;;;;;;;16.90;13.32;;;;;;;;;;5003252;28;20189;-89
2022/03/16 11:18:18;;;;;;;15.90;11.45;;;;;;;;;;5001532;28;20260;-89
2022/03/16 11:20:47;;;;;;;16.95;13.07;;;;;;;;;;5002835;28;20218;-89
2022/03/16 11:26:03;;;;;;;17.48;14.07;;;;;;;;;;5004391;28;20189;-89
2022/03/16 11:28:55;;;;;;;15.43;12.75;;;;;;;;;;5004725;28;20199;-90
2022/03/16 11:31:27;;;;;;;17.95;14.23;;;;;;;;;;5021497;28;20186;-90
2022/03/16 11:33:53;;;;;;;15.40;13.63;;;;;;;;;;5004837;28;20190;-89
2022/03/16 11:36:29;;;;;;;21.05;14.05;;;;;;;;;;5002678;28;20550;-91
2022/03/16 11:38:55;;;;;;;15.27;13.40;;;;;;;;;;5016709;28;20189;-91
2022/03/16 11:41:27;;;;;;;18.13;13.40;;;;;;;;;;5002802;28;20715;-90
2022/03/16 11:44:00;;;;;;;19.38;13.55;;;;;;;;;;5019961;28;20491;-90
2022/03/16 11:46:31;;;;;;;16.65;12.73;;;;;;;;;;5018963;28;20294;-90
2022/03/16 11:49:04;;;;;;;17.10;13.15;;;;;;;;;;4995907;28;20239;-89
2022/03/16 11:51:32;;;;;;;20.13;12.38;;;;;;;;;;4996784;28;20190;-90
2022/03/16 11:54:05;;;;;;;15.00;12.40;;;;;;;;;;4995700;28;20183;-90
2022/03/16 11:56:40;;;;;;;18.75;13.63;;;;;;;;;;5003366;28;20179;-89
2022/03/16 11:59:10;;;;;;;17.25;12.50;;;;;;;;;;5010895;28;20188;-91
2022/03/16 12:01:37;;;;;;;14.57;12.65;;;;;;;;;;5003460;28;20190;-89
2022/03/16 12:04:15;;;;;;;24.60;13.68;;;;;;;;;;5021724;28;20179;-91
2022/03/16 12:07:05;;;;;;;18.70;12.88;;;;;;;;;;5004278;28;20209;-90
2022/03/16 12:09:31;;;;;;;16.65;13.02;;;;;;;;;;5010294;28;20203;-91
2022/03/16 12:15:01;;;;;;;15.52;12.30;;;;;;;;;;4996697;28;20210;-91
2022/03/16 12:17:27;;;;;;;15.07;12.00;;;;;;;;;;5001450;28;20266;-90
2022/03/16 12:20:11;;;;;;;17.90;12.98;;;;;;;;;;5002783;28;20257;-92
2022/03/16 12:22:38;;;;;;;16.40;11.88;;;;;;;;;;5004522;28;20245;-88
2022/03/16 12:25:27;;;;;;;17.85;13.27;;;;;;;;;;5019569;28;20264;-91
2022/03/16 12:30:54;;;;;;;17.10;13.05;;;;;;;;;;5002732;28;20239;-91
2022/03/16 12:33:33;;;;;;;17.02;11.27;;;;;;;;;;5010945;28;20568;-91
2022/03/16 12:36:00;;;;;;;21.90;12.88;;;;;;;;;;4992307;28;20190;-90
2022/03/16 12:38:29;;;;;;;17.13;12.50;;;;;;;;;;5003286;28;20183;-90
2022/03/16 12:43:40;;;;;;;17.35;11.85;;;;;;;;;;5004511;28;20185;-90
2022/03/16 12:46:15;;;;;;;13.20;10.88;;;;;;;;;;5018491;28;20201;-90
2022/03/16 12:48:41;;;;;;;18.73;12.25;;;;;;;;;;5008778;28;20607;-90
2022/03/16 12:51:07;;;;;;;19.17;12.43;;;;;;;;;;4996807;28;20191;-90
2022/03/16 12:53:44;;;;;;;14.50;10.98;;;;;;;;;;5018595;28;20206;-91
2022/03/16 12:56:11;;;;;;;14.48;9.50;;;;;;;;;;5017253;28;20177;-92
2022/03/16 12:58:38;;;;;;;13.63;10.45;;;;;;;;;;5017342;28;20238;-90
2022/03/16 13:01:04;;;;;;;15.32;9.35;;;;;;;;;;5016319;28;20246;-91
2022/03/16 13:03:30;;;;;;;13.95;10.00;;;;;;;;;;5006853;28;20199;-90
2022/03/16 13:05:57;;;;;;;14.38;9.85;;;;;;;;;;4996701;28;20702;-90
2022/03/16 13:08:25;;;;;;;19.67;9.85;;;;;;;;;;5009481;28;20567;-89
2022/03/16 13:11:17;;;;;;;17.70;9.07;;;;;;;;;;5014243;28;20186;-90
2022/03/16 13:13:46;;;;;;;10.82;8.82;;;;;;;;;;5017946;28;20249;-89
2022/03/16 13:16:29;;;;;;;12.80;9.15;;;;;;;;;;5003958;28;20525;-90
2022/03/16 13:18:55;;;;;;;15.18;8.95;;;;;;;;;;5019255;28;20179;-88
2022/03/16 13:21:24;;;;;;;10.37;7.73;;;;;;;;;;5013990;28;20246;-90
2022/03/16 13:24:01;;;;;;;12.98;9.20;;;;;;;;;;5018438;28;20863;-90
2022/03/16 13:26:28;;;;;;;13.98;8.35;;;;;;;;;;5014914;28;20218;-90
2022/03/16 13:28:55;;;;;;;11.75;8.57;;;;;;;;;;5002904;28;20299;-89
2022/03/16 13:31:25;;;;;;;11.07;7.60;;;;;;;;;;5015244;28;20180;-90
2022/03/16 13:33:51;;;;;;;9.48;7.80;;;;;;;;;;5014362;28;20187;-90
2022/03/16 13:36:17;;;;;;;11.90;7.80;;;;;;;;;;5007711;28;20403;-90
2022/03/16 13:38:43;;;;;;;10.00;7.80;;;;;;;;;;5005292;28;20513;-91
2022/03/16 13:41:13;;;;;;;14.38;8.70;;;;;;;;;;5003198;28;20460;-91
2022/03/16 13:43:39;;;;;;;10.82;7.85;;;;;;;;;;5016986;28;20182;-90
2022/03/16 13:46:13;;;;;;;9.68;7.68;;;;;;;;;;4990368;28;20172;-91
2022/03/16 13:48:40;;;;;;;11.52;7.97;;;;;;;;;;5000205;28;20222;-91
2022/03/16 13:51:07;;;;;;;12.23;7.85;;;;;;;;;;4995484;28;20247;-89
2022/03/16 13:53:43;;;;;;;12.13;8.50;;;;;;;;;;4989949;28;20183;-89
2022/03/16 13:56:13;;;;;;;14.18;9.10;;;;;;;;;;5003043;28;20166;-90
2022/03/16 13:58:40;;;;;;;13.07;9.25;;;;;;;;;;4993508;28;20211;-90
2022/03/16 14:01:06;;;;;;;13.70;9.20;;;;;;;;;;5003053;28;20557;-90
2022/03/16 14:03:32;;;;;;;11.00;8.13;;;;;;;;;;5006897;28;20218;-90
2022/03/16 14:06:00;;;;;;;16.15;9.00;;;;;;;;;;5001511;28;20183;-91
2022/03/16 14:08:26;;;;;;;10.50;8.00;;;;;;;;;;4993317;28;20227;-89
2022/03/16 14:10:54;;;;;;;12.20;8.00;;;;;;;;;;4986087;28;20247;-91
2022/03/16 14:13:23;;;;;;;12.38;8.25;;;;;;;;;;5018115;28;20171;-91
2022/03/16 14:15:49;;;;;;;10.23;7.63;;;;;;;;;;5005729;28;20607;-92
2022/03/16 14:18:15;;;;;;;11.60;8.50;;;;;;;;;;5017780;28;20197;-92
2022/03/16 14:20:48;;;;;;;11.10;7.70;;;;;;;;;;5013171;28;20438;-91
2022/03/16 14:23:14;;;;;;;8.98;6.18;;;;;;;;;;5011208;28;20211;-89
2022/03/16 14:25:50;;;;;;;10.98;7.53;;;;;;;;;;5017831;28;20667;-91
2022/03/16 14:28:16;;;;;;;13.98;7.78;;;;;;;;;;5018119;28;20199;-91
2022/03/16 14:30:49;;;;;;;7.78;6.78;;;;;;;;;;4996072;28;20183;-91
2022/03/16 14:33:16;;;;;;;12.23;8.52;;;;;;;;;;5005826;28;20175;-91
2022/03/16 14:35:42;;;;;;;15.93;8.80;;;;;;;;;;5012292;28;20260;-90
2022/03/16 14:38:10;;;;;;;8.77;7.93;;;;;;;;;;4987954;28;20314;-89
2022/03/16 14:40:41;;;;;;;10.00;7.00;;;;;;;;;;5016832;28;20470;-89
2022/03/16 14:43:07;;;;;;;8.02;6.75;;;;;;;;;;5018290;28;20221;-92
2022/03/16 14:45:33;;;;;;;10.57;6.35;;;;;;;;;;5009841;28;20661;-91
2022/03/16 14:48:01;;;;;;;8.85;6.45;;;;;;;;;;4998829;28;20214;-90
2022/03/16 14:50:30;;;;;;;13.80;7.35;;;;;;;;;;4996967;28;20222;-89
2022/03/16 14:53:04;;;;;;;9.30;6.43;;;;;;;;;;4989190;28;20209;-90